LDRI/RJK METAR and TAF weather

Enter ICAO airport designator
Station Type Date Time Source
LDRI METAR 2021/04/13 23:00 UTC NOAA

LDRI 132300Z 35009KT 300V030 9999 SCT020 BKN030 07/M02 Q1022


Station Type Date Time Source
LDRI Decoded METAR 2021/04/13 23:00 UTC NOAA

Rijeka / Omisalj, Croatia (LDRI) 45-13N 014-35E
Apr 13, 2021 - 07:00 PM EDT / 2021.04.13 2300 UTC
Wind: from the N (350 degrees) at 10 MPH (9 KT) (direction variable):0
Visibility: greater than 7 mile(s):0
Sky conditions: mostly cloudy
Temperature: 44 F (7 C)
Dew Point: 28 F (-2 C)
Relative Humidity: 52%
Pressure (altimeter): 30.18 in. Hg (1022 hPa)
ob: LDRI 132300Z 35009KT 300V030 9999 SCT020 BKN030 07/M02 Q1022
cycle: 23

Station Type Date Time Source
LDRI TAF 2021/04/13 18:27 UTC NOAA

TAF LDRI 131725Z 1318/1418 32008KT 9999 SCT040 BKN050 TX12/1413Z TN05/1404Z PROB40
TEMPO 1318/1409 VRB15G30KT

Example: see airport list